sensor_id;sensor_type;location;lat;lon;timestamp;P1;durP1;ratioP1;P2;durP2;ratioP2
19617;SDS011;9956;51.006;13.670;2022-12-16T00:01:26;65.17;;;36.67;;
19617;SDS011;9956;51.006;13.670;2022-12-16T00:06:28;64.00;;;37.37;;
19617;SDS011;9956;51.006;13.670;2022-12-16T00:11:30;71.37;;;37.63;;
19617;SDS011;9956;51.006;13.670;2022-12-16T00:16:31;65.70;;;37.30;;
19617;SDS011;9956;51.006;13.670;2022-12-16T00:21:32;67.60;;;38.40;;
19617;SDS011;9956;51.006;13.670;2022-12-16T00:26:32;71.05;;;41.05;;
19617;SDS011;9956;51.006;13.670;2022-12-16T00:31:33;65.30;;;37.50;;
19617;SDS011;9956;51.006;13.670;2022-12-16T00:36:33;68.10;;;41.00;;
19617;SDS011;9956;51.006;13.670;2022-12-16T00:41:34;72.10;;;42.23;;
19617;SDS011;9956;51.006;13.670;2022-12-16T00:46:34;74.10;;;49.90;;
19617;SDS011;9956;51.006;13.670;2022-12-16T00:51:35;78.13;;;47.53;;
19617;SDS011;9956;51.006;13.670;2022-12-16T00:56:35;70.57;;;41.53;;
19617;SDS011;9956;51.006;13.670;2022-12-16T01:01:36;71.50;;;42.93;;
19617;SDS011;9956;51.006;13.670;2022-12-16T01:06:36;70.87;;;42.67;;
19617;SDS011;9956;51.006;13.670;2022-12-16T01:18:03;68.43;;;39.40;;
19617;SDS011;9956;51.006;13.670;2022-12-16T01:23:04;68.03;;;39.85;;
19617;SDS011;9956;51.006;13.670;2022-12-16T01:28:04;70.40;;;41.37;;
19617;SDS011;9956;51.006;13.670;2022-12-16T01:33:05;71.23;;;37.63;;
19617;SDS011;9956;51.006;13.670;2022-12-16T01:38:05;64.07;;;38.47;;
19617;SDS011;9956;51.006;13.670;2022-12-16T01:43:10;67.67;;;37.83;;
19617;SDS011;9956;51.006;13.670;2022-12-16T01:53:35;81.47;;;52.40;;
19617;SDS011;9956;51.006;13.670;2022-12-16T01:58:37;88.87;;;52.70;;
19617;SDS011;9956;51.006;13.670;2022-12-16T02:03:38;78.53;;;46.90;;
19617;SDS011;9956;51.006;13.670;2022-12-16T02:08:40;82.70;;;47.63;;
19617;SDS011;9956;51.006;13.670;2022-12-16T02:19:08;76.23;;;45.57;;
19617;SDS011;9956;51.006;13.670;2022-12-16T02:35:43;70.00;;;39.53;;
19617;SDS011;9956;51.006;13.670;2022-12-16T02:40:54;70.87;;;39.60;;
19617;SDS011;9956;51.006;13.670;2022-12-16T02:46:06;72.57;;;40.43;;
19617;SDS011;9956;51.006;13.670;2022-12-16T02:51:07;73.50;;;41.20;;
19617;SDS011;9956;51.006;13.670;2022-12-16T02:56:28;67.40;;;38.72;;
19617;SDS011;9956;51.006;13.670;2022-12-16T03:06:53;73.30;;;42.87;;
19617;SDS011;9956;51.006;13.670;2022-12-16T03:11:55;71.30;;;41.33;;
19617;SDS011;9956;51.006;13.670;2022-12-16T03:16:56;73.37;;;41.60;;
19617;SDS011;9956;51.006;13.670;2022-12-16T03:22:02;72.83;;;39.97;;
19617;SDS011;9956;51.006;13.670;2022-12-16T03:27:10;73.07;;;42.10;;
19617;SDS011;9956;51.006;13.670;2022-12-16T03:32:34;73.10;;;42.40;;
19617;SDS011;9956;51.006;13.670;2022-12-16T03:37:37;70.27;;;40.53;;
19617;SDS011;9956;51.006;13.670;2022-12-16T03:42:38;73.32;;;42.60;;
19617;SDS011;9956;51.006;13.670;2022-12-16T03:47:39;74.00;;;41.40;;
19617;SDS011;9956;51.006;13.670;2022-12-16T03:52:40;72.40;;;39.97;;
19617;SDS011;9956;51.006;13.670;2022-12-16T03:57:40;69.30;;;40.15;;
19617;SDS011;9956;51.006;13.670;2022-12-16T04:02:41;76.67;;;39.83;;
19617;SDS011;9956;51.006;13.670;2022-12-16T04:07:41;68.17;;;37.93;;
19617;SDS011;9956;51.006;13.670;2022-12-16T04:12:42;70.07;;;39.17;;
19617;SDS011;9956;51.006;13.670;2022-12-16T04:18:01;64.80;;;36.70;;
19617;SDS011;9956;51.006;13.670;2022-12-16T04:23:20;66.55;;;36.70;;
19617;SDS011;9956;51.006;13.670;2022-12-16T04:28:39;65.25;;;36.00;;
19617;SDS011;9956;51.006;13.670;2022-12-16T04:33:40;62.42;;;35.15;;
19617;SDS011;9956;51.006;13.670;2022-12-16T04:38:59;61.92;;;35.00;;
19617;SDS011;9956;51.006;13.670;2022-12-16T04:44:18;58.67;;;32.80;;
19617;SDS011;9956;51.006;13.670;2022-12-16T04:49:37;53.00;;;31.08;;
19617;SDS011;9956;51.006;13.670;2022-12-16T04:54:56;53.35;;;30.27;;
19617;SDS011;9956;51.006;13.670;2022-12-16T05:00:15;49.03;;;30.48;;
19617;SDS011;9956;51.006;13.670;2022-12-16T05:05:34;51.13;;;29.63;;
19617;SDS011;9956;51.006;13.670;2022-12-16T05:10:55;52.95;;;29.83;;
19617;SDS011;9956;51.006;13.670;2022-12-16T05:16:14;53.72;;;31.10;;
19617;SDS011;9956;51.006;13.670;2022-12-16T05:21:33;45.15;;;27.60;;
19617;SDS011;9956;51.006;13.670;2022-12-16T05:26:53;50.80;;;29.10;;
19617;SDS011;9956;51.006;13.670;2022-12-16T05:32:12;52.63;;;28.55;;
19617;SDS011;9956;51.006;13.670;2022-12-16T05:37:31;44.33;;;27.70;;
19617;SDS011;9956;51.006;13.670;2022-12-16T05:42:50;49.25;;;26.75;;
19617;SDS011;9956;51.006;13.670;2022-12-16T05:48:09;46.28;;;27.70;;
19617;SDS011;9956;51.006;13.670;2022-12-16T05:53:28;50.47;;;30.45;;
19617;SDS011;9956;51.006;13.670;2022-12-16T05:58:47;42.83;;;25.50;;
19617;SDS011;9956;51.006;13.670;2022-12-16T06:04:06;44.50;;;26.10;;
19617;SDS011;9956;51.006;13.670;2022-12-16T06:09:25;42.40;;;24.80;;
19617;SDS011;9956;51.006;13.670;2022-12-16T06:14:44;42.15;;;24.50;;
19617;SDS011;9956;51.006;13.670;2022-12-16T06:20:03;44.30;;;27.00;;
19617;SDS011;9956;51.006;13.670;2022-12-16T06:25:22;43.67;;;25.03;;
19617;SDS011;9956;51.006;13.670;2022-12-16T06:30:41;42.60;;;26.13;;
19617;SDS011;9956;51.006;13.670;2022-12-16T06:35:59;43.25;;;25.80;;
19617;SDS011;9956;51.006;13.670;2022-12-16T06:41:19;39.95;;;23.48;;
19617;SDS011;9956;51.006;13.670;2022-12-16T06:46:38;40.67;;;23.92;;
19617;SDS011;9956;51.006;13.670;2022-12-16T06:51:57;43.90;;;26.67;;
19617;SDS011;9956;51.006;13.670;2022-12-16T06:57:16;43.90;;;26.63;;
19617;SDS011;9956;51.006;13.670;2022-12-16T07:02:34;51.80;;;26.52;;
19617;SDS011;9956;51.006;13.670;2022-12-16T07:07:53;41.88;;;25.15;;
19617;SDS011;9956;51.006;13.670;2022-12-16T07:13:12;46.38;;;26.60;;
19617;SDS011;9956;51.006;13.670;2022-12-16T07:18:31;42.55;;;25.83;;
19617;SDS011;9956;51.006;13.670;2022-12-16T07:23:50;45.35;;;26.50;;
19617;SDS011;9956;51.006;13.670;2022-12-16T07:29:09;47.72;;;27.33;;
19617;SDS011;9956;51.006;13.670;2022-12-16T07:34:28;47.78;;;27.33;;
19617;SDS011;9956;51.006;13.670;2022-12-16T07:39:47;52.28;;;29.13;;
19617;SDS011;9956;51.006;13.670;2022-12-16T07:45:06;47.78;;;28.05;;
19617;SDS011;9956;51.006;13.670;2022-12-16T07:50:26;50.33;;;28.42;;
19617;SDS011;9956;51.006;13.670;2022-12-16T07:55:45;47.20;;;27.75;;
19617;SDS011;9956;51.006;13.670;2022-12-16T08:01:04;47.03;;;27.63;;
19617;SDS011;9956;51.006;13.670;2022-12-16T08:06:23;49.08;;;28.25;;
19617;SDS011;9956;51.006;13.670;2022-12-16T08:11:42;46.58;;;28.73;;
19617;SDS011;9956;51.006;13.670;2022-12-16T08:17:01;53.17;;;30.15;;
19617;SDS011;9956;51.006;13.670;2022-12-16T08:22:20;48.35;;;28.27;;
19617;SDS011;9956;51.006;13.670;2022-12-16T08:27:38;48.75;;;29.13;;
19617;SDS011;9956;51.006;13.670;2022-12-16T08:32:57;54.45;;;32.40;;
19617;SDS011;9956;51.006;13.670;2022-12-16T08:38:16;49.42;;;30.92;;
19617;SDS011;9956;51.006;13.670;2022-12-16T08:43:35;60.42;;;35.75;;
19617;SDS011;9956;51.006;13.670;2022-12-16T08:48:54;58.45;;;35.22;;
19617;SDS011;9956;51.006;13.670;2022-12-16T08:54:13;55.92;;;33.80;;
19617;SDS011;9956;51.006;13.670;2022-12-16T08:59:32;59.70;;;36.08;;
19617;SDS011;9956;51.006;13.670;2022-12-16T09:04:52;58.53;;;35.08;;
19617;SDS011;9956;51.006;13.670;2022-12-16T09:10:11;67.07;;;37.33;;
19617;SDS011;9956;51.006;13.670;2022-12-16T09:15:30;69.22;;;38.92;;
19617;SDS011;9956;51.006;13.670;2022-12-16T09:20:49;67.97;;;40.35;;
19617;SDS011;9956;51.006;13.670;2022-12-16T09:26:09;68.57;;;41.45;;
19617;SDS011;9956;51.006;13.670;2022-12-16T09:31:29;67.65;;;40.33;;
19617;SDS011;9956;51.006;13.670;2022-12-16T09:36:48;57.17;;;35.08;;
19617;SDS011;9956;51.006;13.670;2022-12-16T09:42:13;63.83;;;37.17;;
19617;SDS011;9956;51.006;13.670;2022-12-16T09:53:10;59.78;;;35.33;;
19617;SDS011;9956;51.006;13.670;2022-12-16T09:59:06;56.38;;;34.78;;
19617;SDS011;9956;51.006;13.670;2022-12-16T10:04:18;55.92;;;33.15;;
19617;SDS011;9956;51.006;13.670;2022-12-16T10:09:41;62.92;;;35.50;;
19617;SDS011;9956;51.006;13.670;2022-12-16T10:26:37;54.85;;;35.05;;
19617;SDS011;9956;51.006;13.670;2022-12-16T10:31:58;59.22;;;35.05;;
19617;SDS011;9956;51.006;13.670;2022-12-16T10:37:19;61.45;;;37.10;;
19617;SDS011;9956;51.006;13.670;2022-12-16T10:42:48;60.22;;;39.17;;
19617;SDS011;9956;51.006;13.670;2022-12-16T10:48:13;59.40;;;35.30;;
19617;SDS011;9956;51.006;13.670;2022-12-16T10:53:34;60.10;;;36.63;;
19617;SDS011;9956;51.006;13.670;2022-12-16T10:59:00;61.65;;;37.33;;
19617;SDS011;9956;51.006;13.670;2022-12-16T11:04:37;64.57;;;40.70;;
19617;SDS011;9956;51.006;13.670;2022-12-16T11:09:56;62.80;;;37.05;;
19617;SDS011;9956;51.006;13.670;2022-12-16T11:15:20;59.97;;;35.53;;
19617;SDS011;9956;51.006;13.670;2022-12-16T11:20:43;62.05;;;36.75;;
19617;SDS011;9956;51.006;13.670;2022-12-16T11:26:12;59.38;;;36.80;;
19617;SDS011;9956;51.006;13.670;2022-12-16T11:31:31;57.80;;;36.75;;
19617;SDS011;9956;51.006;13.670;2022-12-16T11:36:50;60.28;;;35.63;;
19617;SDS011;9956;51.006;13.670;2022-12-16T11:42:11;61.35;;;37.17;;
19617;SDS011;9956;51.006;13.670;2022-12-16T11:47:44;61.88;;;36.15;;
19617;SDS011;9956;51.006;13.670;2022-12-16T11:53:08;56.67;;;34.78;;
19617;SDS011;9956;51.006;13.670;2022-12-16T11:58:55;66.38;;;39.67;;
19617;SDS011;9956;51.006;13.670;2022-12-16T12:04:19;58.25;;;35.50;;
19617;SDS011;9956;51.006;13.670;2022-12-16T12:09:40;61.53;;;37.08;;
19617;SDS011;9956;51.006;13.670;2022-12-16T12:15:14;59.08;;;37.35;;
19617;SDS011;9956;51.006;13.670;2022-12-16T12:21:04;61.58;;;37.63;;
19617;SDS011;9956;51.006;13.670;2022-12-16T12:26:31;63.90;;;37.28;;
19617;SDS011;9956;51.006;13.670;2022-12-16T12:32:00;64.18;;;37.83;;
19617;SDS011;9956;51.006;13.670;2022-12-16T12:37:33;60.63;;;38.70;;
19617;SDS011;9956;51.006;13.670;2022-12-16T12:42:56;63.05;;;37.97;;
19617;SDS011;9956;51.006;13.670;2022-12-16T12:48:37;59.50;;;36.47;;
19617;SDS011;9956;51.006;13.670;2022-12-16T12:54:14;61.47;;;37.42;;
19617;SDS011;9956;51.006;13.670;2022-12-16T13:00:05;60.42;;;37.78;;
19617;SDS011;9956;51.006;13.670;2022-12-16T13:05:31;59.47;;;35.40;;
19617;SDS011;9956;51.006;13.670;2022-12-16T13:10:59;62.35;;;40.60;;
19617;SDS011;9956;51.006;13.670;2022-12-16T13:22:03;58.97;;;38.05;;
19617;SDS011;9956;51.006;13.670;2022-12-16T13:27:23;66.50;;;38.35;;
19617;SDS011;9956;51.006;13.670;2022-12-16T13:32:52;68.82;;;40.60;;
19617;SDS011;9956;51.006;13.670;2022-12-16T13:38:19;62.47;;;36.88;;
19617;SDS011;9956;51.006;13.670;2022-12-16T13:43:57;76.15;;;49.83;;
19617;SDS011;9956;51.006;13.670;2022-12-16T13:54:58;68.30;;;40.45;;
19617;SDS011;9956;51.006;13.670;2022-12-16T14:00:21;83.85;;;53.13;;
19617;SDS011;9956;51.006;13.670;2022-12-16T14:05:50;72.32;;;44.22;;
19617;SDS011;9956;51.006;13.670;2022-12-16T14:11:17;65.47;;;40.28;;
19617;SDS011;9956;51.006;13.670;2022-12-16T14:16:51;68.57;;;40.50;;
19617;SDS011;9956;51.006;13.670;2022-12-16T14:27:47;72.63;;;44.30;;
19617;SDS011;9956;51.006;13.670;2022-12-16T14:33:15;64.43;;;38.85;;
19617;SDS011;9956;51.006;13.670;2022-12-16T14:38:45;66.60;;;38.90;;
19617;SDS011;9956;51.006;13.670;2022-12-16T14:44:25;70.77;;;41.93;;
19617;SDS011;9956;51.006;13.670;2022-12-16T14:49:50;70.75;;;40.78;;
19617;SDS011;9956;51.006;13.670;2022-12-16T15:00:29;77.40;;;45.33;;
19617;SDS011;9956;51.006;13.670;2022-12-16T15:05:48;78.63;;;45.27;;
19617;SDS011;9956;51.006;13.670;2022-12-16T15:11:09;93.53;;;54.03;;
19617;SDS011;9956;51.006;13.670;2022-12-16T15:16:30;88.30;;;51.67;;
19617;SDS011;9956;51.006;13.670;2022-12-16T15:21:51;86.13;;;52.20;;
19617;SDS011;9956;51.006;13.670;2022-12-16T15:32:40;96.05;;;58.05;;
19617;SDS011;9956;51.006;13.670;2022-12-16T15:37:59;67.07;;;39.72;;
19617;SDS011;9956;51.006;13.670;2022-12-16T15:43:28;66.73;;;37.33;;
19617;SDS011;9956;51.006;13.670;2022-12-16T15:48:48;64.57;;;37.35;;
19617;SDS011;9956;51.006;13.670;2022-12-16T15:54:28;64.50;;;38.30;;
19617;SDS011;9956;51.006;13.670;2022-12-16T15:59:54;69.50;;;40.30;;
19617;SDS011;9956;51.006;13.670;2022-12-16T16:05:19;68.80;;;40.17;;
19617;SDS011;9956;51.006;13.670;2022-12-16T16:10:40;70.87;;;39.87;;
19617;SDS011;9956;51.006;13.670;2022-12-16T16:16:00;71.23;;;42.50;;
19617;SDS011;9956;51.006;13.670;2022-12-16T16:21:20;74.05;;;44.28;;
19617;SDS011;9956;51.006;13.670;2022-12-16T16:26:40;74.47;;;45.80;;
19617;SDS011;9956;51.006;13.670;2022-12-16T16:32:00;78.82;;;45.22;;
19617;SDS011;9956;51.006;13.670;2022-12-16T16:37:20;67.03;;;40.58;;
19617;SDS011;9956;51.006;13.670;2022-12-16T16:42:39;67.00;;;37.27;;
19617;SDS011;9956;51.006;13.670;2022-12-16T16:48:07;70.93;;;40.70;;
19617;SDS011;9956;51.006;13.670;2022-12-16T16:53:28;67.95;;;39.00;;
19617;SDS011;9956;51.006;13.670;2022-12-16T16:58:47;72.60;;;40.28;;
19617;SDS011;9956;51.006;13.670;2022-12-16T17:04:07;66.00;;;37.80;;
19617;SDS011;9956;51.006;13.670;2022-12-16T17:09:26;70.25;;;42.33;;
19617;SDS011;9956;51.006;13.670;2022-12-16T17:14:45;79.13;;;42.17;;
19617;SDS011;9956;51.006;13.670;2022-12-16T17:20:05;64.03;;;37.87;;
19617;SDS011;9956;51.006;13.670;2022-12-16T17:25:25;65.85;;;37.30;;
19617;SDS011;9956;51.006;13.670;2022-12-16T17:30:43;78.47;;;45.57;;
19617;SDS011;9956;51.006;13.670;2022-12-16T17:36:22;70.40;;;41.93;;
19617;SDS011;9956;51.006;13.670;2022-12-16T17:41:41;80.68;;;44.67;;
19617;SDS011;9956;51.006;13.670;2022-12-16T17:47:01;66.30;;;37.97;;
19617;SDS011;9956;51.006;13.670;2022-12-16T17:52:20;69.60;;;40.20;;
19617;SDS011;9956;51.006;13.670;2022-12-16T17:57:39;68.93;;;39.73;;
19617;SDS011;9956;51.006;13.670;2022-12-16T18:02:58;63.90;;;39.37;;
19617;SDS011;9956;51.006;13.670;2022-12-16T18:08:17;65.80;;;39.87;;
19617;SDS011;9956;51.006;13.670;2022-12-16T18:13:36;69.23;;;40.20;;
19617;SDS011;9956;51.006;13.670;2022-12-16T18:18:55;69.50;;;40.53;;
19617;SDS011;9956;51.006;13.670;2022-12-16T18:24:14;69.83;;;39.33;;
19617;SDS011;9956;51.006;13.670;2022-12-16T18:29:33;71.07;;;42.43;;
19617;SDS011;9956;51.006;13.670;2022-12-16T18:34:51;71.33;;;42.90;;
19617;SDS011;9956;51.006;13.670;2022-12-16T18:40:10;71.97;;;42.97;;
19617;SDS011;9956;51.006;13.670;2022-12-16T18:45:29;71.90;;;42.27;;
19617;SDS011;9956;51.006;13.670;2022-12-16T18:50:54;66.72;;;39.15;;
19617;SDS011;9956;51.006;13.670;2022-12-16T18:56:15;67.40;;;41.73;;
19617;SDS011;9956;51.006;13.670;2022-12-16T19:01:34;74.57;;;42.53;;
19617;SDS011;9956;51.006;13.670;2022-12-16T19:06:52;76.37;;;44.87;;
19617;SDS011;9956;51.006;13.670;2022-12-16T19:12:11;73.13;;;43.05;;
19617;SDS011;9956;51.006;13.670;2022-12-16T19:17:30;70.47;;;41.07;;
19617;SDS011;9956;51.006;13.670;2022-12-16T19:22:49;68.97;;;41.72;;
19617;SDS011;9956;51.006;13.670;2022-12-16T19:28:12;66.60;;;41.03;;
19617;SDS011;9956;51.006;13.670;2022-12-16T19:33:32;66.60;;;39.22;;
19617;SDS011;9956;51.006;13.670;2022-12-16T19:38:51;72.22;;;40.28;;
19617;SDS011;9956;51.006;13.670;2022-12-16T19:44:09;70.28;;;42.72;;
19617;SDS011;9956;51.006;13.670;2022-12-16T19:49:28;68.77;;;39.67;;
19617;SDS011;9956;51.006;13.670;2022-12-16T19:54:47;61.90;;;41.47;;
19617;SDS011;9956;51.006;13.670;2022-12-16T20:00:06;68.30;;;40.65;;
19617;SDS011;9956;51.006;13.670;2022-12-16T20:05:27;68.83;;;40.90;;
19617;SDS011;9956;51.006;13.670;2022-12-16T20:10:46;68.87;;;40.53;;
19617;SDS011;9956;51.006;13.670;2022-12-16T20:16:06;67.53;;;39.97;;
19617;SDS011;9956;51.006;13.670;2022-12-16T20:21:27;70.00;;;40.17;;
19617;SDS011;9956;51.006;13.670;2022-12-16T20:26:46;67.80;;;42.30;;
19617;SDS011;9956;51.006;13.670;2022-12-16T20:32:05;73.07;;;40.83;;
19617;SDS011;9956;51.006;13.670;2022-12-16T20:37:26;69.13;;;40.83;;
19617;SDS011;9956;51.006;13.670;2022-12-16T20:42:45;61.65;;;38.35;;
19617;SDS011;9956;51.006;13.670;2022-12-16T20:48:04;67.93;;;40.27;;
19617;SDS011;9956;51.006;13.670;2022-12-16T20:53:23;76.90;;;48.47;;
19617;SDS011;9956;51.006;13.670;2022-12-16T20:58:42;70.03;;;39.60;;
19617;SDS011;9956;51.006;13.670;2022-12-16T21:04:01;64.17;;;40.53;;
19617;SDS011;9956;51.006;13.670;2022-12-16T21:09:20;63.63;;;37.38;;
19617;SDS011;9956;51.006;13.670;2022-12-16T21:14:39;66.73;;;40.43;;
19617;SDS011;9956;51.006;13.670;2022-12-16T21:19:58;67.68;;;40.40;;
19617;SDS011;9956;51.006;13.670;2022-12-16T21:25:27;68.57;;;40.50;;
19617;SDS011;9956;51.006;13.670;2022-12-16T21:30:46;63.03;;;41.33;;
19617;SDS011;9956;51.006;13.670;2022-12-16T21:36:05;67.43;;;40.47;;
19617;SDS011;9956;51.006;13.670;2022-12-16T21:41:24;64.88;;;38.70;;
19617;SDS011;9956;51.006;13.670;2022-12-16T21:46:43;66.10;;;39.93;;
19617;SDS011;9956;51.006;13.670;2022-12-16T21:52:03;71.60;;;41.37;;
19617;SDS011;9956;51.006;13.670;2022-12-16T21:57:21;64.88;;;40.13;;
19617;SDS011;9956;51.006;13.670;2022-12-16T22:02:40;62.93;;;38.23;;
19617;SDS011;9956;51.006;13.670;2022-12-16T22:08:04;64.97;;;37.57;;
19617;SDS011;9956;51.006;13.670;2022-12-16T22:13:24;65.90;;;39.53;;
19617;SDS011;9956;51.006;13.670;2022-12-16T22:18:43;64.10;;;37.53;;
19617;SDS011;9956;51.006;13.670;2022-12-16T22:24:03;58.07;;;36.13;;
19617;SDS011;9956;51.006;13.670;2022-12-16T22:29:22;58.83;;;36.63;;
19617;SDS011;9956;51.006;13.670;2022-12-16T22:34:40;63.03;;;37.27;;
19617;SDS011;9956;51.006;13.670;2022-12-16T22:39:59;55.70;;;36.33;;
19617;SDS011;9956;51.006;13.670;2022-12-16T22:45:19;61.17;;;36.87;;
19617;SDS011;9956;51.006;13.670;2022-12-16T22:50:38;60.10;;;38.00;;
19617;SDS011;9956;51.006;13.670;2022-12-16T22:55:56;60.27;;;37.53;;
19617;SDS011;9956;51.006;13.670;2022-12-16T23:01:16;63.17;;;37.60;;
19617;SDS011;9956;51.006;13.670;2022-12-16T23:06:34;64.95;;;39.03;;
19617;SDS011;9956;51.006;13.670;2022-12-16T23:11:54;62.88;;;40.08;;
19617;SDS011;9956;51.006;13.670;2022-12-16T23:17:13;66.67;;;38.90;;
19617;SDS011;9956;51.006;13.670;2022-12-16T23:22:32;59.53;;;37.40;;
19617;SDS011;9956;51.006;13.670;2022-12-16T23:27:51;69.73;;;38.53;;
19617;SDS011;9956;51.006;13.670;2022-12-16T23:33:10;63.87;;;37.03;;
19617;SDS011;9956;51.006;13.670;2022-12-16T23:38:29;63.53;;;39.47;;
19617;SDS011;9956;51.006;13.670;2022-12-16T23:44:13;62.63;;;38.47;;
19617;SDS011;9956;51.006;13.670;2022-12-16T23:49:40;61.70;;;38.63;;
19617;SDS011;9956;51.006;13.670;2022-12-16T23:54:59;68.23;;;43.27;;
